createdAt,value
2017-12-05T00:02:12.093Z,2.19
2017-12-05T00:04:41.140Z,2.18
2017-12-05T00:07:10.206Z,2.27
2017-12-05T00:09:39.278Z,2.26
2017-12-05T00:12:08.327Z,2.36
2017-12-05T00:14:39.362Z,2.35
2017-12-05T00:17:08.402Z,2.28
2017-12-05T00:22:16.715Z,2.21
2017-12-05T00:25:00.636Z,2.26
2017-12-05T00:27:30.617Z,2.32
2017-12-05T00:30:01.590Z,2.32
2017-12-05T00:32:31.592Z,2.33
2017-12-05T00:35:01.542Z,2.31
2017-12-05T00:37:39.983Z,2.32
2017-12-05T00:40:09.128Z,2.37
2017-12-05T00:42:38.226Z,2.46
2017-12-05T00:45:07.275Z,2.48
2017-12-05T00:47:40.317Z,2.54
2017-12-05T00:50:09.362Z,2.47
2017-12-05T00:52:40.355Z,2.41
2017-12-05T00:55:09.398Z,2.44
2017-12-05T00:57:40.402Z,2.51
2017-12-05T01:00:09.492Z,2.46
2017-12-05T01:02:38.549Z,2.53
2017-12-05T01:05:07.598Z,2.61
2017-12-05T01:07:36.637Z,2.55
2017-12-05T01:10:05.682Z,2.52
2017-12-05T01:12:42.284Z,2.55
2017-12-05T01:15:11.416Z,2.54
2017-12-05T01:17:40.462Z,2.51
2017-12-05T01:20:09.580Z,2.52
2017-12-05T01:22:38.618Z,2.56
2017-12-05T01:25:07.686Z,2.53
2017-12-05T01:27:40.439Z,2.60
2017-12-05T01:30:09.487Z,2.62
2017-12-05T01:32:40.482Z,2.61
2017-12-05T01:35:09.524Z,2.50
2017-12-05T01:37:39.505Z,2.47
2017-12-05T01:40:08.542Z,2.38
2017-12-05T01:42:59.258Z,2.39
2017-12-05T01:45:28.334Z,2.28
2017-12-05T01:47:57.391Z,2.33
2017-12-05T01:50:27.422Z,2.39
2017-12-05T01:55:36.560Z,2.43
2017-12-05T01:58:05.596Z,2.33
2017-12-05T02:00:34.661Z,2.34
2017-12-05T02:03:03.701Z,2.43
2017-12-05T02:05:32.870Z,2.43
2017-12-05T02:08:01.922Z,2.39
2017-12-05T02:10:31.026Z,2.38
2017-12-05T02:13:00.070Z,2.39
2017-12-05T02:15:30.075Z,2.40
2017-12-05T02:17:59.125Z,2.33
2017-12-05T02:20:28.168Z,2.45
2017-12-05T02:23:01.162Z,2.36
2017-12-05T02:25:31.198Z,2.39
2017-12-05T02:28:01.156Z,2.46
2017-12-05T02:30:30.219Z,2.47
2017-12-05T02:33:01.147Z,2.44
2017-12-05T02:35:31.159Z,2.48
2017-12-05T02:38:01.115Z,2.35
2017-12-05T02:40:49.846Z,2.40
2017-12-05T02:43:19.762Z,2.39
2017-12-05T02:46:00.927Z,2.39
2017-12-05T02:51:07.142Z,2.41
2017-12-05T02:53:44.501Z,2.40
2017-12-05T02:56:13.543Z,2.36
2017-12-05T02:58:42.585Z,2.43
2017-12-05T03:01:11.638Z,2.33
2017-12-05T03:03:41.590Z,2.49
2017-12-05T03:06:10.635Z,2.42
2017-12-05T03:08:40.635Z,2.43
2017-12-05T03:11:09.678Z,2.46
2017-12-05T03:13:38.721Z,2.39
2017-12-05T03:16:07.799Z,2.31
2017-12-05T03:18:36.827Z,2.34
2017-12-05T03:21:05.876Z,2.33
2017-12-05T03:23:35.858Z,2.26
2017-12-05T03:26:04.910Z,2.26
2017-12-05T03:28:33.939Z,2.28
2017-12-05T03:31:03.899Z,2.21
2017-12-05T03:33:36.120Z,2.31
2017-12-05T03:36:05.168Z,2.27
2017-12-05T03:38:34.233Z,2.30
2017-12-05T03:41:03.317Z,2.28
2017-12-05T03:43:32.399Z,2.31
2017-12-05T03:46:01.418Z,2.25
2017-12-05T03:48:32.454Z,2.28
2017-12-05T03:51:01.510Z,2.27
2017-12-05T03:56:15.411Z,2.28
2017-12-05T03:58:44.441Z,2.33
2017-12-05T04:01:13.475Z,2.34
2017-12-05T04:03:49.990Z,2.24
2017-12-05T04:06:19.015Z,2.23
2017-12-05T04:14:01.971Z,2.31
2017-12-05T04:19:09.155Z,2.17
2017-12-05T04:21:38.200Z,2.14
2017-12-05T04:24:07.242Z,2.16
2017-12-05T04:26:39.850Z,2.17
2017-12-05T04:29:08.879Z,2.17
2017-12-05T04:31:42.206Z,2.19
2017-12-05T04:34:12.197Z,2.26
2017-12-05T04:36:46.158Z,2.29
2017-12-05T04:39:15.227Z,2.31
2017-12-05T04:41:52.018Z,2.28
2017-12-05T04:49:41.324Z,2.40
2017-12-05T04:52:11.371Z,2.28
2017-12-05T04:54:40.398Z,2.28
2017-12-05T04:57:09.453Z,2.30
2017-12-05T05:02:30.243Z,2.30
2017-12-05T05:05:00.208Z,2.26
2017-12-05T05:07:29.258Z,2.31
2017-12-05T05:10:01.797Z,2.20
2017-12-05T05:12:34.732Z,2.22
2017-12-05T05:15:03.790Z,2.23
2017-12-05T05:20:09.078Z,2.33
2017-12-05T05:25:14.343Z,2.32
2017-12-05T05:27:43.390Z,2.29
2017-12-05T05:30:12.428Z,2.20
2017-12-05T05:32:41.494Z,2.23
2017-12-05T05:35:10.543Z,2.29
2017-12-05T05:43:05.414Z,2.45
2017-12-05T05:45:34.479Z,2.36
2017-12-05T05:48:03.513Z,2.38
2017-12-05T05:50:34.542Z,2.40
2017-12-05T05:53:03.587Z,2.37
2017-12-05T05:55:32.623Z,2.37
2017-12-05T05:58:01.665Z,2.34
2017-12-05T06:00:30.714Z,2.44
2017-12-05T06:03:01.650Z,2.43
2017-12-05T06:05:36.682Z,2.39
2017-12-05T06:08:05.706Z,2.43
2017-12-05T06:10:38.278Z,2.37
2017-12-05T06:13:07.316Z,2.37
2017-12-05T06:15:36.425Z,2.51
2017-12-05T06:18:05.476Z,2.49
2017-12-05T06:20:34.514Z,2.41
2017-12-05T06:23:03.562Z,2.40
2017-12-05T06:25:45.463Z,2.43
2017-12-05T06:28:14.502Z,2.43
2017-12-05T06:30:45.492Z,2.35
2017-12-05T06:33:14.535Z,2.40
2017-12-05T06:36:01.961Z,2.43
2017-12-05T06:38:31.034Z,2.43
2017-12-05T06:41:00.974Z,2.45
2017-12-05T06:43:33.754Z,2.38
2017-12-05T06:46:02.847Z,2.34
2017-12-05T06:51:10.085Z,2.45
2017-12-05T06:53:40.084Z,2.49
2017-12-05T06:56:09.143Z,2.44
2017-12-05T06:58:40.173Z,2.51
2017-12-05T07:01:09.249Z,2.57
2017-12-05T07:03:38.288Z,2.57
2017-12-05T07:06:07.336Z,2.56
2017-12-05T07:08:44.084Z,2.60
2017-12-05T07:11:13.098Z,2.65
2017-12-05T07:14:00.630Z,2.54
2017-12-05T07:16:29.684Z,2.62
2017-12-05T07:18:59.738Z,2.59
2017-12-05T07:21:28.774Z,2.47
2017-12-05T07:23:57.810Z,2.56
2017-12-05T07:26:26.882Z,2.55
2017-12-05T07:31:32.412Z,2.50
2017-12-05T07:34:02.959Z,2.58
2017-12-05T07:36:32.058Z,2.66
2017-12-05T07:39:11.521Z,2.75
2017-12-05T07:41:40.570Z,2.73
2017-12-05T07:44:09.615Z,2.75
2017-12-05T07:46:42.821Z,2.81
2017-12-05T07:49:11.987Z,2.92
2017-12-05T07:51:41.041Z,2.99
2017-12-05T07:54:10.088Z,2.96
2017-12-05T07:56:39.115Z,3.00
2017-12-05T07:59:08.160Z,3.01
2017-12-05T08:04:12.288Z,3.08
2017-12-05T08:06:46.770Z,3.06
2017-12-05T08:09:15.961Z,3.00
2017-12-05T08:14:20.261Z,2.95
2017-12-05T08:16:51.262Z,3.00
2017-12-05T08:19:21.981Z,2.78
2017-12-05T08:21:57.962Z,2.93
2017-12-05T08:24:28.299Z,2.96
2017-12-05T08:26:57.338Z,3.00
2017-12-05T08:29:26.430Z,3.12
2017-12-05T08:31:55.469Z,3.28
2017-12-05T08:37:06.578Z,3.58
2017-12-05T08:39:40.376Z,3.60
2017-12-05T08:42:09.425Z,3.62
2017-12-05T08:44:38.482Z,3.62
2017-12-05T08:47:07.533Z,3.77
2017-12-05T08:49:36.681Z,3.80
2017-12-05T08:52:07.668Z,3.85
2017-12-05T08:54:36.705Z,3.75
2017-12-05T08:57:05.757Z,3.83
2017-12-05T08:59:34.862Z,3.81
2017-12-05T09:02:03.979Z,3.76
2017-12-05T09:07:14.118Z,4.12
2017-12-05T09:09:49.660Z,4.05
2017-12-05T09:12:22.229Z,4.07
2017-12-05T09:14:56.389Z,4.08
2017-12-05T09:17:31.336Z,4.01
2017-12-05T09:20:05.833Z,4.00
2017-12-05T09:22:42.121Z,4.18
2017-12-05T09:25:12.191Z,4.40
2017-12-05T09:27:44.947Z,4.41
2017-12-05T09:30:15.309Z,4.38
2017-12-05T09:32:44.316Z,4.16
2017-12-05T09:35:14.809Z,4.08
2017-12-05T09:40:45.945Z,4.11
2017-12-05T09:43:15.231Z,4.15
2017-12-05T09:45:46.305Z,4.13
2017-12-05T09:48:20.829Z,4.19
2017-12-05T09:50:49.901Z,4.11
2017-12-05T09:53:19.382Z,4.14
2017-12-05T09:55:53.549Z,4.33
2017-12-05T09:58:32.250Z,4.41
2017-12-05T10:01:01.354Z,4.31
2017-12-05T10:03:41.139Z,4.47
2017-12-05T10:06:23.730Z,4.58
2017-12-05T10:08:52.849Z,4.44
2017-12-05T10:11:27.298Z,4.34
2017-12-05T10:13:56.403Z,4.39
2017-12-05T10:16:27.716Z,4.52
2017-12-05T10:18:56.931Z,4.39
2017-12-05T10:21:39.250Z,4.40
2017-12-05T10:24:20.540Z,4.43
2017-12-05T10:26:53.690Z,4.37
2017-12-05T10:31:59.144Z,4.61
2017-12-05T10:34:28.182Z,4.51
2017-12-05T10:36:57.230Z,4.53
2017-12-05T10:42:01.470Z,4.74
2017-12-05T10:47:05.767Z,5.00
2017-12-05T10:49:35.762Z,4.70
2017-12-05T10:52:04.852Z,4.78
2017-12-05T10:54:33.895Z,4.88
2017-12-05T10:57:03.825Z,4.81
2017-12-05T10:59:39.977Z,4.89
2017-12-05T11:02:09.039Z,4.97
2017-12-05T11:04:38.077Z,5.01
2017-12-05T11:07:07.102Z,5.28
2017-12-05T11:09:36.144Z,5.20
2017-12-05T11:14:44.365Z,5.43
2017-12-05T11:17:13.396Z,5.49
2017-12-05T11:19:42.590Z,5.42
2017-12-05T11:22:11.625Z,5.35
2017-12-05T11:24:40.659Z,5.38
2017-12-05T11:27:10.046Z,5.56
2017-12-05T11:29:39.088Z,5.69
2017-12-05T11:32:08.124Z,5.63
2017-12-05T11:34:37.190Z,5.49
2017-12-05T11:37:06.215Z,5.53
2017-12-05T11:39:42.658Z,5.75
2017-12-05T11:42:15.430Z,5.72
2017-12-05T11:44:44.476Z,5.75
2017-12-05T11:47:13.502Z,5.76
2017-12-05T11:49:46.318Z,5.68
2017-12-05T11:52:15.346Z,5.63
2017-12-05T11:54:44.396Z,5.53
2017-12-05T11:57:13.423Z,5.69
2017-12-05T11:59:42.465Z,5.57
2017-12-05T12:04:47.643Z,5.71
2017-12-05T12:09:51.866Z,5.63
2017-12-05T12:12:24.920Z,5.44
2017-12-05T12:14:53.969Z,5.46
2017-12-05T12:17:46.120Z,5.56
2017-12-05T12:20:15.159Z,5.63
2017-12-05T12:22:46.182Z,5.51
2017-12-05T12:27:50.454Z,5.65
2017-12-05T12:30:23.408Z,5.71
2017-12-05T12:32:53.356Z,5.58
2017-12-05T12:35:23.455Z,5.43
2017-12-05T12:37:52.462Z,5.49
2017-12-05T12:40:26.663Z,5.54
2017-12-05T12:42:55.694Z,5.51
2017-12-05T12:45:25.690Z,5.26
2017-12-05T12:47:54.712Z,5.31
2017-12-05T12:50:23.783Z,5.46
2017-12-05T12:52:52.817Z,5.53
2017-12-05T12:55:21.866Z,5.34
2017-12-05T12:57:50.910Z,5.28
2017-12-05T13:00:31.036Z,5.27
2017-12-05T13:03:00.050Z,5.35
2017-12-05T13:05:31.304Z,5.26
2017-12-05T13:08:00.311Z,5.20
2017-12-05T13:10:39.227Z,5.20
2017-12-05T13:13:27.822Z,5.02
2017-12-05T13:15:56.850Z,5.01
2017-12-05T13:18:43.633Z,4.83
2017-12-05T13:23:49.337Z,4.93
2017-12-05T13:26:19.391Z,4.92
2017-12-05T13:28:48.413Z,4.92
2017-12-05T13:31:23.267Z,4.85
2017-12-05T13:33:52.343Z,4.86
2017-12-05T13:38:57.579Z,4.96
2017-12-05T13:41:26.618Z,5.03
2017-12-05T13:43:55.727Z,4.90
2017-12-05T13:49:00.899Z,4.71
2017-12-05T13:51:31.929Z,4.93
2017-12-05T13:54:00.954Z,4.81
2017-12-05T13:56:30.950Z,4.71
2017-12-05T13:59:00.140Z,4.60
2017-12-05T14:04:05.218Z,4.58
2017-12-05T14:06:34.267Z,4.57
2017-12-05T14:09:04.386Z,4.55
2017-12-05T14:11:33.431Z,4.63
2017-12-05T14:14:03.351Z,4.68
2017-12-05T14:16:33.494Z,4.64
2017-12-05T14:19:02.519Z,4.61
2017-12-05T14:24:14.879Z,4.54
2017-12-05T14:26:43.912Z,4.39
2017-12-05T14:29:13.898Z,4.43
2017-12-05T14:34:19.267Z,4.28
2017-12-05T14:36:48.302Z,4.25
2017-12-05T14:39:21.976Z,4.06
2017-12-05T14:41:51.018Z,4.03
2017-12-05T14:46:55.764Z,3.93
2017-12-05T14:49:33.008Z,4.02
2017-12-05T14:52:02.083Z,4.02
2017-12-05T14:54:31.129Z,3.88
2017-12-05T14:57:00.170Z,3.90
2017-12-05T14:59:38.608Z,3.93
2017-12-05T15:02:09.658Z,3.87
2017-12-05T15:04:38.720Z,3.71
2017-12-05T15:07:07.751Z,3.82
2017-12-05T15:12:14.063Z,3.77
2017-12-05T15:14:46.842Z,3.72
2017-12-05T15:17:19.613Z,3.77
2017-12-05T15:19:48.759Z,3.80
2017-12-05T15:22:30.390Z,3.80
2017-12-05T15:24:59.423Z,3.72
2017-12-05T15:27:36.096Z,3.72
2017-12-05T15:30:05.252Z,3.73
2017-12-05T15:35:24.493Z,3.74
2017-12-05T15:37:53.598Z,3.77
2017-12-05T15:40:34.518Z,3.77
2017-12-05T15:43:04.154Z,3.77
2017-12-05T15:45:44.184Z,3.78
2017-12-05T15:48:16.951Z,3.62
2017-12-05T15:53:47.179Z,3.62
2017-12-05T15:56:16.211Z,3.76
2017-12-05T15:58:45.770Z,3.69
2017-12-05T16:03:49.971Z,3.65
2017-12-05T16:06:36.089Z,3.74
2017-12-05T16:09:05.526Z,3.79
2017-12-05T16:11:35.557Z,3.80
2017-12-05T16:14:07.604Z,3.68
2017-12-05T16:16:36.635Z,3.49
2017-12-05T16:19:05.793Z,3.38
2017-12-05T16:21:34.954Z,3.52
2017-12-05T16:24:05.053Z,3.59
2017-12-05T16:26:37.422Z,3.52
2017-12-05T16:29:10.341Z,3.48
2017-12-05T16:31:40.403Z,3.59
2017-12-05T16:34:21.306Z,3.44
2017-12-05T16:36:50.318Z,3.37
2017-12-05T16:39:27.185Z,3.41
2017-12-05T16:41:56.218Z,3.37
2017-12-05T16:44:25.255Z,3.46
2017-12-05T16:46:54.296Z,3.42
2017-12-05T16:49:23.330Z,3.37
2017-12-05T16:51:52.382Z,3.28
2017-12-05T16:54:21.503Z,3.25
2017-12-05T16:56:50.657Z,3.00
2017-12-05T17:01:54.957Z,2.64
2017-12-05T17:04:24.007Z,2.49
2017-12-05T17:06:53.043Z,2.39
2017-12-05T17:09:24.091Z,2.45
2017-12-05T17:11:53.125Z,2.53
2017-12-05T17:16:59.369Z,2.71
2017-12-05T17:19:28.511Z,2.74
2017-12-05T17:21:59.522Z,2.85
2017-12-05T17:27:04.597Z,2.81
2017-12-05T17:29:46.453Z,2.73
2017-12-05T17:32:16.446Z,2.67
2017-12-05T17:34:46.448Z,2.58
2017-12-05T17:37:16.855Z,2.48
2017-12-05T17:39:46.812Z,2.42
2017-12-05T17:42:16.880Z,2.16
2017-12-05T17:44:46.823Z,2.12
2017-12-05T17:47:23.218Z,2.16
2017-12-05T17:49:52.276Z,2.09
2017-12-05T17:52:22.240Z,2.13
2017-12-05T17:54:51.311Z,2.24
2017-12-05T17:59:56.608Z,2.19
2017-12-05T18:02:37.696Z,2.33
2017-12-05T18:05:06.742Z,2.32
2017-12-05T18:07:37.162Z,2.35
2017-12-05T18:10:07.207Z,2.36
2017-12-05T18:12:47.024Z,2.33
2017-12-05T18:15:21.931Z,2.32
2017-12-05T18:17:50.996Z,2.33
2017-12-05T18:23:00.920Z,2.35
2017-12-05T18:25:29.986Z,2.30
2017-12-05T18:27:59.070Z,2.28
2017-12-05T18:30:28.203Z,2.15
2017-12-05T18:32:57.253Z,2.13
2017-12-05T18:38:01.714Z,2.02
2017-12-05T18:40:33.962Z,2.09
2017-12-05T18:43:02.985Z,2.11
2017-12-05T18:45:46.955Z,2.13
2017-12-05T18:50:54.190Z,1.76
2017-12-05T18:53:23.935Z,1.65
2017-12-05T18:55:52.978Z,1.39
2017-12-05T18:58:22.167Z,1.33
2017-12-05T19:00:51.207Z,1.29
2017-12-05T19:03:20.246Z,1.24
2017-12-05T19:05:49.294Z,1.22
2017-12-05T19:08:18.342Z,1.25
2017-12-05T19:10:47.385Z,1.03
2017-12-05T19:13:16.911Z,0.95
2017-12-05T19:15:52.124Z,0.72
2017-12-05T19:18:21.182Z,0.59
2017-12-05T19:20:53.874Z,0.62
2017-12-05T19:23:22.917Z,0.53
2017-12-05T19:25:53.859Z,0.58
2017-12-05T19:28:22.970Z,0.61
2017-12-05T19:30:52.017Z,0.60
2017-12-05T19:33:21.059Z,0.66
2017-12-05T19:35:51.154Z,0.87
2017-12-05T19:38:20.197Z,0.98
2017-12-05T19:40:49.231Z,1.12
2017-12-05T19:43:18.290Z,1.21
2017-12-05T19:45:47.335Z,1.13
2017-12-05T19:48:16.395Z,1.29
2017-12-05T19:50:53.338Z,1.51
2017-12-05T19:53:22.377Z,1.38
2017-12-05T19:55:52.407Z,1.51
2017-12-05T19:58:21.434Z,1.57
2017-12-05T20:03:25.691Z,1.66
2017-12-05T20:06:04.836Z,1.68
2017-12-05T20:08:34.638Z,1.79
2017-12-05T20:11:07.286Z,1.64
2017-12-05T20:13:37.275Z,1.75
2017-12-05T20:16:09.851Z,1.80
2017-12-05T20:18:44.491Z,1.93
2017-12-05T20:23:48.791Z,1.78
2017-12-05T20:26:18.330Z,1.84
2017-12-05T20:28:51.983Z,1.98
2017-12-05T20:31:21.058Z,1.98
2017-12-05T20:33:52.157Z,1.96
2017-12-05T20:36:23.351Z,1.88
2017-12-05T20:38:52.441Z,1.99
2017-12-05T20:41:22.425Z,2.03
2017-12-05T20:43:51.483Z,2.00
2017-12-05T20:46:20.640Z,1.97
2017-12-05T20:48:56.502Z,2.06
2017-12-05T20:51:25.549Z,1.91
2017-12-05T20:53:58.123Z,1.92
2017-12-05T20:56:27.278Z,1.99
2017-12-05T20:58:57.249Z,2.00
2017-12-05T21:01:30.642Z,2.06
2017-12-05T21:04:08.224Z,2.01
2017-12-05T21:06:43.796Z,2.01
2017-12-05T21:14:39.419Z,1.88
2017-12-05T21:22:22.758Z,2.01
2017-12-05T21:24:55.613Z,1.88
2017-12-05T21:27:24.676Z,1.65
2017-12-05T21:29:54.667Z,1.70
2017-12-05T21:32:25.654Z,1.47
2017-12-05T21:37:36.174Z,1.45
2017-12-05T21:40:05.609Z,1.24
2017-12-05T21:42:39.546Z,1.14
2017-12-05T21:45:16.500Z,1.02
2017-12-05T21:47:53.426Z,0.99
2017-12-05T21:50:22.791Z,0.89
2017-12-05T21:52:53.910Z,0.82
2017-12-05T21:55:22.971Z,0.90
2017-12-05T21:58:00.995Z,0.73
2017-12-05T22:00:35.845Z,0.71
2017-12-05T22:08:16.767Z,0.58
2017-12-05T22:10:49.828Z,0.70
2017-12-05T22:13:23.320Z,0.86
2017-12-05T22:15:53.342Z,0.87
2017-12-05T22:18:22.436Z,0.98
2017-12-05T22:23:27.710Z,1.20
2017-12-05T22:25:57.806Z,1.12
2017-12-05T22:28:26.894Z,1.11
2017-12-05T22:30:56.872Z,1.19
2017-12-05T22:33:25.874Z,1.37
2017-12-05T22:35:55.881Z,1.29
2017-12-05T22:38:24.918Z,1.26
2017-12-05T22:40:55.681Z,1.27
2017-12-05T22:43:24.719Z,1.09
2017-12-05T22:45:57.323Z,1.02
2017-12-05T22:48:26.725Z,0.94
2017-12-05T22:50:59.819Z,0.82
2017-12-05T22:53:29.324Z,0.86
2017-12-05T22:55:58.372Z,0.91
2017-12-05T22:58:27.447Z,1.04
2017-12-05T23:00:56.495Z,1.14
2017-12-05T23:03:27.594Z,1.14
2017-12-05T23:08:47.540Z,1.32
2017-12-05T23:11:16.573Z,1.32
2017-12-05T23:13:50.238Z,1.40
2017-12-05T23:16:20.922Z,1.40
2017-12-05T23:18:50.948Z,1.48
2017-12-05T23:21:20.034Z,1.43
2017-12-05T23:23:49.050Z,1.45
2017-12-05T23:26:18.186Z,1.44
2017-12-05T23:28:47.210Z,1.49
2017-12-05T23:31:16.254Z,1.51
2017-12-05T23:33:47.216Z,1.50
2017-12-05T23:36:16.322Z,1.58
2017-12-05T23:38:45.387Z,1.55
2017-12-05T23:41:14.466Z,1.48
2017-12-05T23:43:44.442Z,1.58
2017-12-05T23:46:13.483Z,1.56
2017-12-05T23:51:17.733Z,1.50
2017-12-05T23:53:54.150Z,1.62
2017-12-05T23:56:23.190Z,1.43
2017-12-05T23:58:53.170Z,1.52
